Time;durP1;ratioP1;P1;durP2;ratioP2;P2;SDS_P1;SDS_P2;PMS_P1;PMS_P2;Temp;Humidity;BMP_temperature;BMP_pressure;BME280_temperature;BME280_humidity;BME280_pressure;Samples;Min_cycle;Max_cycle;Signal;HPM_P1;HPM_P2
2020/12/10 00:00:57;;;;;;;37.28;22.58;;;;;;;;;;5069847;28;20351;-83
2020/12/10 00:03:43;;;;;;;35.92;23.17;;;;;;;;;;5065282;28;20025;-82
2020/12/10 00:06:28;;;;;;;37.58;24.13;;;;;;;;;;5057787;28;20064;-83
2020/12/10 00:09:13;;;;;;;33.25;21.52;;;;;;;;;;5062110;28;20024;-82
2020/12/10 00:12:03;;;;;;;33.65;21.67;;;;;;;;;;5066894;28;20024;-82
2020/12/10 00:14:53;;;;;;;33.35;22.45;;;;;;;;;;5069020;28;20501;-82
2020/12/10 00:17:39;;;;;;;34.90;21.02;;;;;;;;;;5062216;28;20032;-82
2020/12/10 00:20:24;;;;;;;38.70;24.10;;;;;;;;;;5064308;28;20021;-84
2020/12/10 00:23:09;;;;;;;35.58;21.08;;;;;;;;;;5073346;28;20027;-84
2020/12/10 00:25:55;;;;;;;32.40;22.00;;;;;;;;;;5069408;28;20016;-83
2020/12/10 00:28:40;;;;;;;37.70;21.95;;;;;;;;;;5066393;28;20047;-84
2020/12/10 00:31:26;;;;;;;31.50;19.80;;;;;;;;;;5069459;28;20107;-83
2020/12/10 00:34:11;;;;;;;31.33;21.13;;;;;;;;;;5053894;28;20087;-84
2020/12/10 00:36:56;;;;;;;37.78;21.85;;;;;;;;;;5057990;28;20016;-84
2020/12/10 00:39:41;;;;;;;31.13;21.02;;;;;;;;;;5058951;28;20657;-83
2020/12/10 00:42:27;;;;;;;33.22;21.98;;;;;;;;;;5059685;28;20025;-83
2020/12/10 00:45:12;;;;;;;33.30;21.25;;;;;;;;;;5045873;28;20379;-84
2020/12/10 00:47:57;;;;;;;30.63;21.65;;;;;;;;;;5057761;28;20441;-84
2020/12/10 00:50:42;;;;;;;35.97;24.17;;;;;;;;;;5061708;28;20021;-82
2020/12/10 00:53:28;;;;;;;34.97;23.15;;;;;;;;;;5061092;28;20029;-83
2020/12/10 00:56:13;;;;;;;35.67;22.80;;;;;;;;;;5054541;28;20033;-84
2020/12/10 01:04:13;;;;;;;35.85;22.55;;;;;;;;;;5191270;23;20049;-78
2020/12/10 01:06:59;;;;;;;34.88;23.15;;;;;;;;;;5048812;28;20031;-78
2020/12/10 01:09:47;;;;;;;36.05;23.15;;;;;;;;;;5047088;28;20074;-79
2020/12/10 01:12:32;;;;;;;36.03;22.80;;;;;;;;;;5057851;28;20123;-79
2020/12/10 01:15:18;;;;;;;38.58;23.80;;;;;;;;;;5052689;28;20032;-78
2020/12/10 01:18:03;;;;;;;37.63;22.45;;;;;;;;;;5054588;28;20078;-78
2020/12/10 01:20:48;;;;;;;35.90;21.90;;;;;;;;;;5049886;28;20063;-78
2020/12/10 01:23:33;;;;;;;37.33;22.02;;;;;;;;;;5053654;28;20025;-78
2020/12/10 01:26:19;;;;;;;32.80;20.38;;;;;;;;;;5035395;28;20032;-79
2020/12/10 01:29:04;;;;;;;33.83;20.58;;;;;;;;;;5055448;28;20387;-79
2020/12/10 01:31:50;;;;;;;33.45;20.52;;;;;;;;;;5049703;28;20059;-79
2020/12/10 01:34:35;;;;;;;36.78;22.50;;;;;;;;;;5054796;28;20115;-78
2020/12/10 01:37:21;;;;;;;29.98;19.58;;;;;;;;;;5054498;28;20055;-78
2020/12/10 01:40:06;;;;;;;30.75;19.02;;;;;;;;;;5050841;28;20024;-79
2020/12/10 01:42:51;;;;;;;36.63;22.30;;;;;;;;;;5044727;28;20021;-78
2020/12/10 01:45:36;;;;;;;36.22;22.67;;;;;;;;;;5056417;28;20059;-78
2020/12/10 01:48:21;;;;;;;37.75;23.63;;;;;;;;;;5053658;28;20170;-79
2020/12/10 01:51:07;;;;;;;37.75;23.88;;;;;;;;;;5055462;28;20016;-79
2020/12/10 01:53:52;;;;;;;34.63;22.17;;;;;;;;;;5055035;28;20377;-79
2020/12/10 01:56:37;;;;;;;35.97;22.75;;;;;;;;;;5048898;28;20024;-78
2020/12/10 01:59:22;;;;;;;31.45;18.50;;;;;;;;;;5052345;28;20104;-78
2020/12/10 02:02:08;;;;;;;35.03;22.75;;;;;;;;;;5027779;28;20565;-79
2020/12/10 02:04:53;;;;;;;40.45;24.13;;;;;;;;;;5046110;28;20492;-78
2020/12/10 02:07:39;;;;;;;38.65;23.70;;;;;;;;;;5046743;28;20021;-79
2020/12/10 02:10:24;;;;;;;41.17;24.05;;;;;;;;;;5050768;28;21530;-78
2020/12/10 02:13:10;;;;;;;34.45;20.38;;;;;;;;;;5047196;28;20166;-78
2020/12/10 02:15:55;;;;;;;35.63;22.13;;;;;;;;;;5051677;28;20028;-79
2020/12/10 02:18:41;;;;;;;31.55;19.27;;;;;;;;;;5045385;28;20284;-79
2020/12/10 02:21:26;;;;;;;32.85;19.83;;;;;;;;;;5049445;28;20070;-79
2020/12/10 02:24:15;;;;;;;33.92;21.50;;;;;;;;;;5037500;28;20025;-78
2020/12/10 02:27:00;;;;;;;31.00;19.88;;;;;;;;;;5045553;28;20472;-78
2020/12/10 02:29:45;;;;;;;30.95;19.08;;;;;;;;;;5046395;28;20033;-79
2020/12/10 02:32:30;;;;;;;30.25;18.88;;;;;;;;;;5046562;28;20032;-77
2020/12/10 02:35:15;;;;;;;29.40;18.45;;;;;;;;;;5044725;28;20028;-77
2020/12/10 02:38:02;;;;;;;38.17;23.77;;;;;;;;;;5052411;28;20036;-79
2020/12/10 02:40:48;;;;;;;32.53;20.40;;;;;;;;;;5046694;28;20395;-78
2020/12/10 02:43:33;;;;;;;33.15;21.15;;;;;;;;;;5041054;28;20024;-80
2020/12/10 02:46:18;;;;;;;29.83;19.52;;;;;;;;;;5044794;28;20479;-80
2020/12/10 02:49:04;;;;;;;32.92;20.88;;;;;;;;;;5050005;28;20155;-77
2020/12/10 02:51:49;;;;;;;31.05;19.67;;;;;;;;;;5044356;28;20037;-79
2020/12/10 02:54:34;;;;;;;35.60;21.20;;;;;;;;;;5043453;28;20032;-79
2020/12/10 02:57:19;;;;;;;31.05;20.00;;;;;;;;;;5050107;28;20044;-78
2020/12/10 03:00:07;;;;;;;35.92;21.48;;;;;;;;;;5043095;28;20245;-78
2020/12/10 03:02:52;;;;;;;31.17;19.63;;;;;;;;;;5048949;28;20045;-78
2020/12/10 03:05:37;;;;;;;34.10;19.48;;;;;;;;;;5046450;28;20143;-80
2020/12/10 03:08:22;;;;;;;35.78;21.15;;;;;;;;;;5049107;28;20024;-79
2020/12/10 03:11:08;;;;;;;33.35;20.05;;;;;;;;;;5044947;28;20032;-78
2020/12/10 03:13:53;;;;;;;31.25;19.83;;;;;;;;;;5040818;28;20067;-77
2020/12/10 03:16:38;;;;;;;34.58;20.65;;;;;;;;;;5046503;28;20378;-78
2020/12/10 03:19:23;;;;;;;31.58;20.73;;;;;;;;;;5045565;28;20098;-79
2020/12/10 03:22:11;;;;;;;28.48;18.25;;;;;;;;;;5051401;28;20880;-79
2020/12/10 03:24:56;;;;;;;37.97;23.42;;;;;;;;;;5045609;28;20099;-79
2020/12/10 03:27:43;;;;;;;33.58;20.10;;;;;;;;;;5047429;28;20032;-77
2020/12/10 03:30:28;;;;;;;40.72;22.40;;;;;;;;;;5046666;28;20028;-79
2020/12/10 03:33:13;;;;;;;41.67;23.00;;;;;;;;;;5047466;28;20083;-78
2020/12/10 03:35:58;;;;;;;34.90;20.95;;;;;;;;;;5046473;28;20143;-78
2020/12/10 03:38:44;;;;;;;33.25;20.92;;;;;;;;;;5051334;28;20388;-79
2020/12/10 03:41:29;;;;;;;33.25;20.58;;;;;;;;;;5051625;28;20035;-78
2020/12/10 03:44:14;;;;;;;36.55;21.73;;;;;;;;;;5045740;28;20032;-78
2020/12/10 03:47:00;;;;;;;33.72;20.85;;;;;;;;;;5041349;28;20408;-77
2020/12/10 03:49:45;;;;;;;34.33;22.15;;;;;;;;;;5045105;28;20025;-78
2020/12/10 03:52:30;;;;;;;34.28;21.95;;;;;;;;;;5050858;28;20062;-79
2020/12/10 03:55:15;;;;;;;31.30;19.65;;;;;;;;;;5051385;28;20086;-78
2020/12/10 03:58:00;;;;;;;42.72;22.52;;;;;;;;;;5047358;28;20032;-78
2020/12/10 04:00:46;;;;;;;37.75;23.67;;;;;;;;;;5048649;28;20028;-78
2020/12/10 04:03:31;;;;;;;30.92;19.58;;;;;;;;;;5042350;28;20055;-78
2020/12/10 04:06:16;;;;;;;32.78;21.05;;;;;;;;;;5045524;28;20020;-78
2020/12/10 04:09:01;;;;;;;39.45;22.70;;;;;;;;;;5045568;28;20498;-78
2020/12/10 04:11:46;;;;;;;43.13;23.85;;;;;;;;;;5045606;28;20054;-78
2020/12/10 04:14:37;;;;;;;32.03;19.00;;;;;;;;;;5046500;28;20403;-78
2020/12/10 04:17:22;;;;;;;35.08;21.25;;;;;;;;;;5046062;28;20119;-76
2020/12/10 04:20:07;;;;;;;37.85;22.45;;;;;;;;;;5045078;28;20167;-79
2020/12/10 04:22:53;;;;;;;36.97;22.55;;;;;;;;;;5046923;28;20499;-79
2020/12/10 04:25:38;;;;;;;38.22;22.48;;;;;;;;;;5047248;28;20024;-78
2020/12/10 04:28:23;;;;;;;40.38;23.77;;;;;;;;;;5040663;28;20037;-78
2020/12/10 04:31:09;;;;;;;35.70;22.73;;;;;;;;;;5045021;28;20486;-78
2020/12/10 04:33:54;;;;;;;38.90;22.80;;;;;;;;;;5046712;28;20056;-78
2020/12/10 04:36:40;;;;;;;40.28;26.15;;;;;;;;;;5046139;28;20441;-79
2020/12/10 04:39:26;;;;;;;43.35;25.58;;;;;;;;;;5045499;28;20053;-79
2020/12/10 04:42:11;;;;;;;41.03;22.25;;;;;;;;;;5053051;28;20032;-78
2020/12/10 04:44:56;;;;;;;37.38;24.00;;;;;;;;;;5050255;28;20473;-79
2020/12/10 04:47:41;;;;;;;42.25;23.95;;;;;;;;;;5051573;28;20024;-78
2020/12/10 04:50:28;;;;;;;43.83;24.38;;;;;;;;;;5045210;28;20028;-78
2020/12/10 04:53:13;;;;;;;38.30;23.55;;;;;;;;;;5052181;28;20139;-79
2020/12/10 04:56:03;;;;;;;46.65;25.60;;;;;;;;;;5053214;28;20528;-78
2020/12/10 04:58:48;;;;;;;38.95;23.70;;;;;;;;;;5049878;28;20032;-78
2020/12/10 05:01:34;;;;;;;45.38;26.60;;;;;;;;;;5045199;28;20093;-78
2020/12/10 05:04:21;;;;;;;41.33;23.98;;;;;;;;;;5039807;28;20482;-78
2020/12/10 05:07:06;;;;;;;46.28;26.08;;;;;;;;;;5049851;28;20028;-79
2020/12/10 05:09:55;;;;;;;40.60;23.70;;;;;;;;;;5045173;28;20024;-79
2020/12/10 05:12:41;;;;;;;46.28;25.45;;;;;;;;;;5049227;28;20476;-79
2020/12/10 05:15:33;;;;;;;43.15;23.67;;;;;;;;;;5044849;28;20039;-78
2020/12/10 05:18:18;;;;;;;44.20;25.55;;;;;;;;;;5047150;28;20579;-78
2020/12/10 05:21:03;;;;;;;42.90;24.67;;;;;;;;;;5047184;28;20120;-78
2020/12/10 05:23:48;;;;;;;44.80;25.23;;;;;;;;;;5051714;28;20024;-78
2020/12/10 05:26:34;;;;;;;39.63;24.67;;;;;;;;;;5045616;28;20450;-78
2020/12/10 05:29:33;;;;;;;43.45;24.80;;;;;;;;;;5052761;28;20050;-78
2020/12/10 05:32:18;;;;;;;;;;;;;;;;;;5054983;28;20395;-79
2020/12/10 05:35:13;;;;;;;50.10;26.45;;;;;;;;;;5049338;28;19908;-80
2020/12/10 05:38:05;;;;;;;45.63;24.88;;;;;;;;;;5051958;28;20107;-79
2020/12/10 05:40:50;;;;;;;39.90;22.90;;;;;;;;;;5046861;28;20020;-79
2020/12/10 05:43:35;;;;;;;39.67;22.63;;;;;;;;;;5039876;28;20060;-79
2020/12/10 05:46:25;;;;;;;44.08;24.23;;;;;;;;;;5049104;28;20027;-79
2020/12/10 05:49:11;;;;;;;50.25;25.63;;;;;;;;;;5046843;28;20033;-78
2020/12/10 05:52:03;;;;;;;73.00;41.55;;;;;;;;;;5041935;28;20033;-78
2020/12/10 05:54:52;;;;;;;45.85;25.15;;;;;;;;;;5051122;28;20359;-77
2020/12/10 05:57:42;;;;;;;46.22;26.38;;;;;;;;;;5048224;28;20550;-78
2020/12/10 06:00:28;;;;;;;43.60;24.75;;;;;;;;;;5043987;28;20040;-78
2020/12/10 06:03:14;;;;;;;44.17;24.88;;;;;;;;;;5044199;28;20128;-78
2020/12/10 06:06:01;;;;;;;45.97;26.52;;;;;;;;;;5044545;28;20482;-79
2020/12/10 06:08:50;;;;;;;50.83;26.00;;;;;;;;;;5046689;28;20112;-79
2020/12/10 06:11:37;;;;;;;48.58;27.80;;;;;;;;;;5040306;28;20482;-78
2020/12/10 06:14:22;;;;;;;45.85;26.10;;;;;;;;;;5022761;28;20044;-79
2020/12/10 06:17:08;;;;;;;55.75;30.08;;;;;;;;;;5040375;28;20032;-78
2020/12/10 06:19:53;;;;;;;50.28;26.70;;;;;;;;;;5048854;28;20025;-79
2020/12/10 06:22:39;;;;;;;50.17;28.92;;;;;;;;;;5042364;28;20082;-77
2020/12/10 06:25:27;;;;;;;46.58;25.50;;;;;;;;;;5048016;28;20115;-79
2020/12/10 06:28:16;;;;;;;53.90;27.83;;;;;;;;;;5045179;28;20020;-79
2020/12/10 06:31:02;;;;;;;48.80;28.08;;;;;;;;;;5052663;28;20016;-79
2020/12/10 06:33:47;;;;;;;59.63;34.00;;;;;;;;;;5040175;28;20544;-78
2020/12/10 06:36:32;;;;;;;47.15;27.95;;;;;;;;;;5037335;28;20036;-78
2020/12/10 06:39:35;;;;;;;49.45;26.65;;;;;;;;;;5035936;28;20514;-78
2020/12/10 06:42:20;;;;;;;43.25;27.58;;;;;;;;;;5042949;28;20032;-78
2020/12/10 06:45:22;;;;;;;49.30;26.95;;;;;;;;;;5041010;28;20028;-79
2020/12/10 06:48:08;;;;;;;45.78;26.67;;;;;;;;;;5045896;28;20032;-79
2020/12/10 06:51:08;;;;;;;47.28;26.08;;;;;;;;;;5052575;28;20025;-78
2020/12/10 06:54:00;;;;;;;45.60;27.35;;;;;;;;;;5048598;28;20028;-79
2020/12/10 06:56:55;;;;;;;50.63;29.38;;;;;;;;;;5047665;28;20636;-79
2020/12/10 06:59:41;;;;;;;41.25;23.38;;;;;;;;;;5043600;28;20037;-78
2020/12/10 07:02:29;;;;;;;45.17;29.65;;;;;;;;;;5058492;28;20533;-78
2020/12/10 07:05:29;;;;;;;47.83;25.95;;;;;;;;;;5035719;28;20029;-78
2020/12/10 07:08:16;;;;;;;42.47;24.98;;;;;;;;;;5047066;28;20382;-78
2020/12/10 07:11:02;;;;;;;42.35;24.55;;;;;;;;;;5050522;28;20032;-78
2020/12/10 07:13:47;;;;;;;46.33;24.92;;;;;;;;;;5042758;28;20029;-78
2020/12/10 07:16:32;;;;;;;38.38;23.10;;;;;;;;;;5047097;28;20032;-79
2020/12/10 07:19:18;;;;;;;37.15;22.38;;;;;;;;;;5037759;28;20040;-78
2020/12/10 07:22:03;;;;;;;42.95;24.08;;;;;;;;;;5050341;28;20028;-79
2020/12/10 07:24:48;;;;;;;38.97;23.42;;;;;;;;;;5041847;28;20017;-78
2020/12/10 07:27:33;;;;;;;49.13;27.85;;;;;;;;;;5042967;28;20033;-78
2020/12/10 07:30:20;;;;;;;49.03;27.50;;;;;;;;;;5043740;28;20362;-79
2020/12/10 07:33:07;;;;;;;46.15;26.27;;;;;;;;;;5050810;28;20032;-79
2020/12/10 07:35:52;;;;;;;41.92;25.88;;;;;;;;;;5040830;28;20098;-79
2020/12/10 07:38:43;;;;;;;41.20;24.05;;;;;;;;;;5050130;28;20028;-80
2020/12/10 07:41:36;;;;;;;50.35;28.17;;;;;;;;;;5042237;28;20039;-79
2020/12/10 07:44:25;;;;;;;46.22;25.23;;;;;;;;;;5048026;28;20398;-79
2020/12/10 07:47:11;;;;;;;43.03;25.40;;;;;;;;;;5044497;28;20454;-79
2020/12/10 07:50:04;;;;;;;42.50;24.73;;;;;;;;;;5046087;28;20032;-79
2020/12/10 07:52:50;;;;;;;45.25;24.17;;;;;;;;;;5044273;28;20374;-79
2020/12/10 07:55:37;;;;;;;40.85;23.77;;;;;;;;;;5048696;28;20036;-78
2020/12/10 07:58:38;;;;;;;39.42;23.33;;;;;;;;;;5044747;28;20032;-78
2020/12/10 08:01:23;;;;;;;35.88;21.15;;;;;;;;;;5042682;28;20067;-78
2020/12/10 08:04:17;;;;;;;39.42;21.85;;;;;;;;;;5045138;28;20044;-78
2020/12/10 08:07:10;;;;;;;38.13;22.40;;;;;;;;;;5048570;28;20027;-78
2020/12/10 08:09:55;;;;;;;36.00;21.25;;;;;;;;;;5057415;28;20082;-79
2020/12/10 08:12:40;;;;;;;32.90;19.58;;;;;;;;;;5047501;28;20026;-78
2020/12/10 08:15:26;;;;;;;37.47;21.02;;;;;;;;;;5036161;28;20099;-78
2020/12/10 08:18:15;;;;;;;34.13;19.83;;;;;;;;;;5049990;28;20070;-78
2020/12/10 08:21:04;;;;;;;31.08;18.42;;;;;;;;;;5055484;28;20025;-79
2020/12/10 08:23:50;;;;;;;33.33;20.33;;;;;;;;;;5055922;28;20033;-79
2020/12/10 08:26:35;;;;;;;47.42;28.40;;;;;;;;;;5051887;28;20021;-80
2020/12/10 08:29:20;;;;;;;45.97;27.55;;;;;;;;;;5051760;28;20070;-79
2020/12/10 08:32:06;;;;;;;33.08;21.35;;;;;;;;;;5046550;28;20031;-80
2020/12/10 08:35:02;;;;;;;34.38;20.30;;;;;;;;;;5049243;28;20107;-80
2020/12/10 08:37:47;;;;;;;27.88;17.83;;;;;;;;;;5050256;28;20452;-78
2020/12/10 08:40:33;;;;;;;30.80;17.90;;;;;;;;;;5055027;28;20031;-79
2020/12/10 08:43:18;;;;;;;30.25;18.08;;;;;;;;;;5042969;28;20118;-79
2020/12/10 08:46:13;;;;;;;35.50;21.55;;;;;;;;;;5049159;28;20017;-79
2020/12/10 08:49:16;;;;;;;48.90;30.90;;;;;;;;;;5047852;28;20031;-79
2020/12/10 08:52:01;;;;;;;36.92;21.23;;;;;;;;;;5066834;28;20020;-78
2020/12/10 08:54:47;;;;;;;31.67;19.13;;;;;;;;;;5048935;28;20040;-80
2020/12/10 08:57:46;;;;;;;30.40;17.83;;;;;;;;;;5044665;28;20067;-79
2020/12/10 09:00:31;;;;;;;30.70;18.98;;;;;;;;;;5043600;28;20036;-79
2020/12/10 09:03:17;;;;;;;25.67;15.20;;;;;;;;;;5039051;28;20056;-79
2020/12/10 09:06:02;;;;;;;24.80;15.70;;;;;;;;;;5046231;28;20024;-79
2020/12/10 09:08:47;;;;;;;19.60;10.55;;;;;;;;;;5048063;28;20419;-79
2020/12/10 09:11:32;;;;;;;17.85;10.05;;;;;;;;;;5054161;28;20572;-79
2020/12/10 09:14:17;;;;;;;19.88;11.68;;;;;;;;;;5045606;28;20032;-79
2020/12/10 09:17:03;;;;;;;20.35;11.82;;;;;;;;;;5045925;28;20046;-79
2020/12/10 09:19:48;;;;;;;24.08;15.07;;;;;;;;;;5043239;28;20520;-80
2020/12/10 09:22:33;;;;;;;17.58;11.32;;;;;;;;;;5050947;28;20024;-79
2020/12/10 09:25:18;;;;;;;15.77;10.05;;;;;;;;;;5045984;28;20032;-78
2020/12/10 09:28:05;;;;;;;16.10;9.68;;;;;;;;;;5055379;28;20028;-79
2020/12/10 09:30:50;;;;;;;13.20;8.48;;;;;;;;;;5039324;28;20021;-79
2020/12/10 09:33:35;;;;;;;16.98;10.98;;;;;;;;;;5046533;28;20033;-79
2020/12/10 09:36:21;;;;;;;15.57;9.93;;;;;;;;;;5053420;28;20028;-79
2020/12/10 09:39:06;;;;;;;16.10;9.85;;;;;;;;;;5047145;28;20178;-78
2020/12/10 09:41:51;;;;;;;15.73;9.57;;;;;;;;;;5051234;28;20035;-79
2020/12/10 09:44:36;;;;;;;15.50;10.80;;;;;;;;;;5053548;28;20013;-79
2020/12/10 09:47:22;;;;;;;18.00;10.55;;;;;;;;;;5057207;28;20029;-79
2020/12/10 09:50:17;;;;;;;16.02;10.30;;;;;;;;;;5046040;28;20024;-79
2020/12/10 09:53:11;;;;;;;19.23;10.55;;;;;;;;;;5053262;28;20059;-79
2020/12/10 09:58:41;;;;;;;16.95;10.65;;;;;;;;;;5048601;28;20446;-77
2020/12/10 10:01:26;;;;;;;17.80;10.43;;;;;;;;;;5045879;28;20450;-78
2020/12/10 10:04:11;;;;;;;16.70;10.10;;;;;;;;;;5044803;28;20449;-78
2020/12/10 10:06:57;;;;;;;17.05;11.15;;;;;;;;;;5049268;28;20090;-78
2020/12/10 10:09:43;;;;;;;15.55;10.13;;;;;;;;;;5048328;28;20066;-77
2020/12/10 10:12:28;;;;;;;17.80;10.65;;;;;;;;;;5045217;28;20552;-78
2020/12/10 10:15:14;;;;;;;18.27;11.32;;;;;;;;;;5039777;28;20016;-78
2020/12/10 10:17:59;;;;;;;17.65;10.85;;;;;;;;;;5041917;28;20032;-78
2020/12/10 10:20:44;;;;;;;16.08;10.85;;;;;;;;;;5043225;28;20020;-77
2020/12/10 10:23:30;;;;;;;17.77;11.13;;;;;;;;;;5052352;28;20024;-80
2020/12/10 10:26:16;;;;;;;16.67;9.73;;;;;;;;;;5048312;28;20038;-78
2020/12/10 10:29:04;;;;;;;16.67;10.77;;;;;;;;;;5043285;28;20422;-77
2020/12/10 10:31:50;;;;;;;18.80;11.10;;;;;;;;;;5045330;28;20017;-78
2020/12/10 10:34:37;;;;;;;16.75;11.60;;;;;;;;;;5046254;28;20055;-79
2020/12/10 10:37:22;;;;;;;42.60;27.15;;;;;;;;;;5048414;28;20056;-79
2020/12/10 10:40:07;;;;;;;20.83;13.85;;;;;;;;;;5044981;28;20402;-80
2020/12/10 10:42:52;;;;;;;18.98;12.57;;;;;;;;;;5045808;28;20021;-78
2020/12/10 10:45:37;;;;;;;20.90;12.27;;;;;;;;;;5028516;28;20481;-80
2020/12/10 10:48:23;;;;;;;20.98;12.25;;;;;;;;;;5037588;28;20033;-79
2020/12/10 10:51:09;;;;;;;22.75;13.30;;;;;;;;;;5047182;28;20051;-78
2020/12/10 10:53:54;;;;;;;19.35;12.13;;;;;;;;;;5046083;28;20056;-79
2020/12/10 10:56:40;;;;;;;20.25;13.02;;;;;;;;;;5053018;28;20450;-79
2020/12/10 10:59:25;;;;;;;23.13;12.65;;;;;;;;;;5040641;28;20029;-80
2020/12/10 11:02:10;;;;;;;21.20;14.10;;;;;;;;;;5040676;28;20020;-78
2020/12/10 11:04:55;;;;;;;21.20;13.48;;;;;;;;;;5043375;28;20111;-77
2020/12/10 11:07:42;;;;;;;19.95;12.93;;;;;;;;;;5050365;28;20449;-78
2020/12/10 11:10:27;;;;;;;22.73;12.77;;;;;;;;;;5054300;28;20493;-80
2020/12/10 11:13:13;;;;;;;33.90;20.70;;;;;;;;;;5047885;28;20135;-77
2020/12/10 11:15:58;;;;;;;47.55;30.85;;;;;;;;;;5045741;28;20081;-79
2020/12/10 11:18:44;;;;;;;22.70;14.43;;;;;;;;;;5042430;28;20031;-80
2020/12/10 11:21:29;;;;;;;20.45;12.75;;;;;;;;;;5046567;28;20028;-77
2020/12/10 11:24:14;;;;;;;20.17;13.35;;;;;;;;;;5049672;28;20554;-77
2020/12/10 11:27:00;;;;;;;21.45;14.02;;;;;;;;;;5045032;28;20526;-77
2020/12/10 11:29:45;;;;;;;22.88;14.77;;;;;;;;;;5045053;28;20393;-78
2020/12/10 11:32:30;;;;;;;25.80;15.70;;;;;;;;;;5041854;28;20029;-78
2020/12/10 11:35:15;;;;;;;25.30;15.98;;;;;;;;;;5042305;28;20123;-78
2020/12/10 11:38:01;;;;;;;23.83;16.38;;;;;;;;;;5042733;28;20024;-78
2020/12/10 11:40:46;;;;;;;23.70;15.00;;;;;;;;;;5039121;28;20028;-78
2020/12/10 11:43:31;;;;;;;23.63;14.20;;;;;;;;;;5050072;28;20482;-77
2020/12/10 11:46:17;;;;;;;23.25;14.30;;;;;;;;;;5043218;28;20429;-78
2020/12/10 11:49:02;;;;;;;23.83;14.02;;;;;;;;;;5053693;28;20554;-81
2020/12/10 11:51:47;;;;;;;25.15;14.88;;;;;;;;;;5050969;28;20482;-77
2020/12/10 11:54:33;;;;;;;25.05;15.70;;;;;;;;;;5045243;28;20444;-78
2020/12/10 11:57:18;;;;;;;26.35;16.13;;;;;;;;;;5055948;28;20040;-78
2020/12/10 12:00:04;;;;;;;26.02;16.02;;;;;;;;;;5048120;28;20119;-78
2020/12/10 12:02:51;;;;;;;24.42;14.57;;;;;;;;;;5050837;28;20040;-79
2020/12/10 12:05:36;;;;;;;28.08;16.50;;;;;;;;;;5043774;28;20489;-80
2020/12/10 12:08:25;;;;;;;23.45;14.88;;;;;;;;;;5053209;28;20029;-80
2020/12/10 12:11:10;;;;;;;26.10;16.67;;;;;;;;;;5050323;28;20020;-79
2020/12/10 12:13:55;;;;;;;22.95;15.35;;;;;;;;;;5054879;28;20524;-80
2020/12/10 12:16:47;;;;;;;27.55;17.17;;;;;;;;;;5039055;28;20032;-78
2020/12/10 12:19:32;;;;;;;25.95;16.20;;;;;;;;;;5052280;28;20048;-81
2020/12/10 12:22:17;;;;;;;26.65;16.10;;;;;;;;;;5046930;28;20041;-80
2020/12/10 12:25:03;;;;;;;25.10;15.20;;;;;;;;;;5033789;28;20025;-79
2020/12/10 12:27:48;;;;;;;24.80;15.43;;;;;;;;;;5050668;28;20470;-77
2020/12/10 12:30:34;;;;;;;23.10;14.38;;;;;;;;;;5051068;28;20047;-76
2020/12/10 12:33:19;;;;;;;27.08;16.35;;;;;;;;;;5049870;28;20039;-75
2020/12/10 12:36:08;;;;;;;26.30;16.38;;;;;;;;;;5059067;28;20017;-77
2020/12/10 12:38:54;;;;;;;25.67;16.03;;;;;;;;;;5048404;28;20363;-76
2020/12/10 12:41:39;;;;;;;24.38;15.02;;;;;;;;;;5045857;28;20378;-76
2020/12/10 12:44:24;;;;;;;29.63;19.27;;;;;;;;;;5049427;28;20274;-76
2020/12/10 12:47:10;;;;;;;25.23;16.38;;;;;;;;;;5048386;28;20028;-75
2020/12/10 12:49:55;;;;;;;27.88;16.65;;;;;;;;;;5055754;28;20622;-76
2020/12/10 12:52:40;;;;;;;26.83;16.35;;;;;;;;;;5046952;28;20029;-77
2020/12/10 12:55:25;;;;;;;25.70;15.95;;;;;;;;;;5050953;28;20031;-77
2020/12/10 12:58:10;;;;;;;27.55;16.52;;;;;;;;;;5051010;28;20039;-77
2020/12/10 13:00:56;;;;;;;28.05;16.77;;;;;;;;;;5054693;28;20186;-75
2020/12/10 13:03:41;;;;;;;27.58;16.30;;;;;;;;;;5049599;28;20394;-76
2020/12/10 13:06:27;;;;;;;28.58;16.63;;;;;;;;;;5047041;28;20031;-76
2020/12/10 13:09:13;;;;;;;26.98;15.60;;;;;;;;;;5050389;28;20497;-77
2020/12/10 13:11:58;;;;;;;25.02;15.80;;;;;;;;;;5049798;28;20108;-76
2020/12/10 13:14:43;;;;;;;27.52;17.00;;;;;;;;;;5043959;28;20047;-77
2020/12/10 13:17:29;;;;;;;26.05;15.68;;;;;;;;;;5048308;28;20200;-77
2020/12/10 13:20:14;;;;;;;29.85;16.52;;;;;;;;;;5046458;28;20081;-77
2020/12/10 13:22:59;;;;;;;25.00;16.10;;;;;;;;;;5050379;28;20021;-77
2020/12/10 13:25:45;;;;;;;25.42;16.30;;;;;;;;;;5052833;28;20493;-76
2020/12/10 13:28:30;;;;;;;26.33;16.35;;;;;;;;;;5050220;28;20025;-77
2020/12/10 13:31:15;;;;;;;23.67;15.98;;;;;;;;;;5052289;28;20028;-77
2020/12/10 13:34:01;;;;;;;27.58;15.93;;;;;;;;;;5053528;28;20051;-77
2020/12/10 13:36:46;;;;;;;27.80;17.50;;;;;;;;;;5046477;28;20161;-76
2020/12/10 13:39:32;;;;;;;27.83;17.98;;;;;;;;;;5044194;28;20254;-77
2020/12/10 13:42:17;;;;;;;29.65;16.73;;;;;;;;;;5044876;28;20087;-77
2020/12/10 13:45:03;;;;;;;26.23;16.15;;;;;;;;;;5050084;28;20028;-76
2020/12/10 13:47:48;;;;;;;25.05;15.68;;;;;;;;;;5054274;28;20017;-75
2020/12/10 13:50:33;;;;;;;26.58;15.77;;;;;;;;;;5047222;28;20023;-76
2020/12/10 13:53:19;;;;;;;23.92;14.95;;;;;;;;;;5050798;28;20068;-76
2020/12/10 13:56:04;;;;;;;31.60;17.77;;;;;;;;;;5040554;28;20025;-76
2020/12/10 13:58:50;;;;;;;25.23;15.55;;;;;;;;;;5045906;28;20059;-76
2020/12/10 14:01:36;;;;;;;31.42;17.50;;;;;;;;;;5048775;28;20020;-75
2020/12/10 14:04:21;;;;;;;29.98;17.65;;;;;;;;;;5054782;28;20299;-77
2020/12/10 14:07:06;;;;;;;28.90;17.92;;;;;;;;;;5046848;28;20561;-76
2020/12/10 14:09:51;;;;;;;26.40;15.75;;;;;;;;;;5043009;28;20414;-76
2020/12/10 14:12:36;;;;;;;29.23;16.80;;;;;;;;;;5051192;28;20035;-76
2020/12/10 14:15:22;;;;;;;26.08;15.55;;;;;;;;;;5050119;28;20522;-76
2020/12/10 14:18:07;;;;;;;25.95;16.48;;;;;;;;;;5045971;28;20103;-77
2020/12/10 14:20:52;;;;;;;27.00;17.05;;;;;;;;;;5042587;28;20052;-76
2020/12/10 14:23:39;;;;;;;24.63;15.60;;;;;;;;;;5044835;28;20056;-77
2020/12/10 14:26:26;;;;;;;29.15;18.27;;;;;;;;;;5045081;28;20059;-77
2020/12/10 14:29:12;;;;;;;29.48;19.67;;;;;;;;;;5046992;28;20386;-76
2020/12/10 14:31:57;;;;;;;54.88;33.78;;;;;;;;;;5048812;28;20165;-75
2020/12/10 14:34:43;;;;;;;45.58;27.35;;;;;;;;;;5052942;28;20020;-76
2020/12/10 14:37:28;;;;;;;36.13;22.05;;;;;;;;;;5045201;28;20067;-75
2020/12/10 14:40:13;;;;;;;32.47;18.58;;;;;;;;;;5044308;28;20029;-76
2020/12/10 14:42:58;;;;;;;32.67;17.45;;;;;;;;;;5047528;28;20073;-75
2020/12/10 14:45:43;;;;;;;26.50;17.35;;;;;;;;;;5036589;28;20576;-76
2020/12/10 14:48:29;;;;;;;27.33;17.65;;;;;;;;;;5039345;28;20036;-75
2020/12/10 14:51:14;;;;;;;26.48;16.77;;;;;;;;;;5053390;28;20078;-77
2020/12/10 14:53:59;;;;;;;28.55;17.13;;;;;;;;;;5045262;28;20046;-77
2020/12/10 14:56:44;;;;;;;40.38;26.15;;;;;;;;;;5045078;28;20025;-76
2020/12/10 14:59:30;;;;;;;35.75;22.55;;;;;;;;;;5042398;28;20056;-77
2020/12/10 15:02:15;;;;;;;30.55;18.23;;;;;;;;;;5047236;28;20040;-76
2020/12/10 15:05:00;;;;;;;33.35;19.38;;;;;;;;;;5048736;28;20120;-77
2020/12/10 15:07:45;;;;;;;29.30;17.63;;;;;;;;;;5049359;28;20027;-76
2020/12/10 15:10:31;;;;;;;31.73;17.80;;;;;;;;;;5047643;28;20067;-76
2020/12/10 15:13:16;;;;;;;33.47;17.50;;;;;;;;;;5045648;28;20688;-77
2020/12/10 15:16:01;;;;;;;31.88;20.15;;;;;;;;;;5051894;28;20378;-76
2020/12/10 15:18:46;;;;;;;32.42;18.58;;;;;;;;;;5049387;28;20489;-76
2020/12/10 15:21:32;;;;;;;30.88;17.65;;;;;;;;;;5052529;28;20056;-76
2020/12/10 15:24:17;;;;;;;33.47;18.90;;;;;;;;;;5050367;28;20032;-76
2020/12/10 15:27:02;;;;;;;31.50;18.60;;;;;;;;;;5036743;28;20124;-76
2020/12/10 15:29:47;;;;;;;30.00;18.48;;;;;;;;;;5056286;28;20017;-77
2020/12/10 15:32:33;;;;;;;35.10;19.70;;;;;;;;;;5048400;28;20036;-76
2020/12/10 15:35:18;;;;;;;34.50;21.33;;;;;;;;;;5044127;28;20479;-77
2020/12/10 15:38:03;;;;;;;31.27;20.30;;;;;;;;;;5048883;28;20028;-76
2020/12/10 15:40:49;;;;;;;32.05;18.67;;;;;;;;;;5046520;28;20029;-76
2020/12/10 15:43:34;;;;;;;31.23;19.45;;;;;;;;;;5036196;28;20025;-77
2020/12/10 15:46:19;;;;;;;33.08;20.48;;;;;;;;;;5051246;28;20032;-76
2020/12/10 15:49:05;;;;;;;33.17;19.63;;;;;;;;;;5046703;28;20036;-76
2020/12/10 15:51:51;;;;;;;34.78;20.65;;;;;;;;;;5051309;28;20089;-76
2020/12/10 15:54:36;;;;;;;34.95;20.23;;;;;;;;;;5046548;28;20016;-76
2020/12/10 15:57:21;;;;;;;37.95;21.88;;;;;;;;;;5047905;28;20381;-76
2020/12/10 16:00:07;;;;;;;34.40;19.67;;;;;;;;;;5042890;28;20012;-76
2020/12/10 16:02:52;;;;;;;29.73;18.05;;;;;;;;;;5043962;28;20507;-76
2020/12/10 16:05:37;;;;;;;37.15;22.15;;;;;;;;;;5037581;28;20100;-76
2020/12/10 16:08:22;;;;;;;30.83;18.88;;;;;;;;;;5051040;28;20244;-76
2020/12/10 16:11:07;;;;;;;31.00;19.80;;;;;;;;;;5047675;28;20020;-76
2020/12/10 16:13:53;;;;;;;34.67;20.75;;;;;;;;;;5041495;28;20059;-77
2020/12/10 16:16:40;;;;;;;34.35;19.55;;;;;;;;;;5061512;28;20379;-76